Time;durP1;ratioP1;P1;durP2;ratioP2;P2;SDS_P1;SDS_P2;PMS_P1;PMS_P2;Temp;Humidity;BMP_temperature;BMP_pressure;BME280_temperature;BME280_humidity;BME280_pressure;Samples;Min_cycle;Max_cycle;Signal;HPM_P1;HPM_P2
2022/11/07 00:01:20;;;;;;;26.85;25.10;;;;;;;;;;10128462;28;20045;-72
2022/11/07 00:06:16;;;;;;;26.77;25.17;;;;;;;;;;10129772;28;20046;-69
2022/11/07 00:11:12;;;;;;;26.40;24.85;;;;;;;;;;10138832;28;20046;-72
2022/11/07 00:16:10;;;;;;;26.73;24.90;;;;;;;;;;10133847;28;20039;-73
2022/11/07 00:21:07;;;;;;;24.08;22.52;;;;;;;;;;10148547;28;20043;-73
2022/11/07 00:26:05;;;;;;;22.73;21.20;;;;;;;;;;10140934;28;20042;-73
2022/11/07 00:31:02;;;;;;;22.02;20.52;;;;;;;;;;10128855;28;20043;-72
2022/11/07 00:35:58;;;;;;;22.70;21.27;;;;;;;;;;10128646;28;20046;-71
2022/11/07 00:41:02;;;;;;;22.08;20.58;;;;;;;;;;10138695;28;20047;-71
2022/11/07 00:46:00;;;;;;;21.42;19.92;;;;;;;;;;10143872;28;20089;-71
2022/11/07 00:50:56;;;;;;;22.67;21.17;;;;;;;;;;10134027;28;20137;-70
2022/11/07 00:55:53;;;;;;;20.02;18.75;;;;;;;;;;10146362;28;20050;-71
2022/11/07 01:00:49;;;;;;;20.58;19.25;;;;;;;;;;10142166;28;20057;-71
2022/11/07 01:05:58;;;;;;;18.85;17.35;;;;;;;;;;10139051;28;20498;-71
2022/11/07 01:10:55;;;;;;;17.20;16.08;;;;;;;;;;10140435;28;20073;-72
2022/11/07 01:15:51;;;;;;;19.45;18.25;;;;;;;;;;10137259;28;20444;-70
2022/11/07 01:20:49;;;;;;;17.70;16.42;;;;;;;;;;10130184;28;20046;-72
2022/11/07 01:25:45;;;;;;;18.00;16.70;;;;;;;;;;10120095;28;20050;-71
2022/11/07 01:30:42;;;;;;;18.30;17.08;;;;;;;;;;10137084;28;20665;-71
2022/11/07 01:35:38;;;;;;;17.63;16.50;;;;;;;;;;10129568;28;20049;-72
2022/11/07 01:41:19;;;;;;;17.30;16.10;;;;;;;;;;10137100;28;20044;-73
2022/11/07 01:45:55;;;;;;;18.83;17.33;;;;;;;;;;10133560;28;20046;-72
2022/11/07 01:50:51;;;;;;;19.55;18.27;;;;;;;;;;10124084;28;20545;-72
2022/11/07 01:55:47;;;;;;;19.45;18.20;;;;;;;;;;10126409;28;20046;-75
2022/11/07 02:00:44;;;;;;;19.52;17.98;;;;;;;;;;10133317;28;20046;-71
2022/11/07 02:05:42;;;;;;;20.23;18.52;;;;;;;;;;11147435;23;20038;-71
2022/11/07 02:10:39;;;;;;;18.83;17.52;;;;;;;;;;10221489;28;20041;-70
2022/11/07 02:15:36;;;;;;;19.30;18.00;;;;;;;;;;10220781;28;20042;-70
2022/11/07 02:20:32;;;;;;;18.48;17.10;;;;;;;;;;10199901;28;20052;-70
2022/11/07 02:25:28;;;;;;;19.45;18.17;;;;;;;;;;10197266;28;20050;-74
2022/11/07 02:30:26;;;;;;;19.95;18.20;;;;;;;;;;10210331;28;20529;-74
2022/11/07 02:35:38;;;;;;;18.02;16.92;;;;;;;;;;10186195;28;20049;-73
2022/11/07 02:40:34;;;;;;;19.92;18.52;;;;;;;;;;10178388;28;20046;-72
2022/11/07 02:45:31;;;;;;;19.08;17.80;;;;;;;;;;10179078;28;20062;-73
2022/11/07 02:50:28;;;;;;;21.38;19.88;;;;;;;;;;10188998;28;20064;-71
2022/11/07 02:55:24;;;;;;;17.67;16.45;;;;;;;;;;10195785;28;20050;-72
2022/11/07 03:00:20;;;;;;;19.02;17.55;;;;;;;;;;10189437;28;20045;-72
2022/11/07 03:05:18;;;;;;;18.27;17.08;;;;;;;;;;10175606;28;20117;-69
2022/11/07 03:10:14;;;;;;;19.27;17.73;;;;;;;;;;10171691;28;20050;-69
2022/11/07 03:15:12;;;;;;;16.35;15.25;;;;;;;;;;10185781;28;20037;-73
2022/11/07 03:20:08;;;;;;;17.85;16.52;;;;;;;;;;10193264;28;20041;-75
2022/11/07 03:25:05;;;;;;;18.13;16.83;;;;;;;;;;10183717;28;20438;-75
2022/11/07 03:30:01;;;;;;;18.65;17.35;;;;;;;;;;10189578;28;20050;-75
2022/11/07 03:34:57;;;;;;;19.48;18.13;;;;;;;;;;10191274;28;20507;-75
2022/11/07 03:39:53;;;;;;;18.52;17.17;;;;;;;;;;10211546;28;20046;-74
2022/11/07 03:44:50;;;;;;;19.20;17.90;;;;;;;;;;10204649;28;20136;-70
2022/11/07 03:49:46;;;;;;;18.40;17.00;;;;;;;;;;10210984;28;20402;-70
2022/11/07 03:54:42;;;;;;;20.33;18.77;;;;;;;;;;10205700;28;20044;-70
2022/11/07 03:59:39;;;;;;;18.83;17.48;;;;;;;;;;10219008;28;20043;-70
2022/11/07 04:04:35;;;;;;;20.95;19.33;;;;;;;;;;10199247;28;20397;-70
2022/11/07 04:09:31;;;;;;;19.52;18.02;;;;;;;;;;10186292;28;20129;-70
2022/11/07 04:19:43;;;;;;;21.23;19.75;;;;;;;;;;10196826;28;20038;-70
2022/11/07 04:24:40;;;;;;;23.00;20.92;;;;;;;;;;10177569;28;20064;-71
2022/11/07 04:29:41;;;;;;;21.63;20.15;;;;;;;;;;10170117;28;20594;-71
2022/11/07 04:34:37;;;;;;;23.55;21.70;;;;;;;;;;10194535;28;20052;-74
2022/11/07 04:39:33;;;;;;;21.15;19.45;;;;;;;;;;10176236;28;20042;-74
2022/11/07 04:44:29;;;;;;;24.20;22.40;;;;;;;;;;10174228;28;20047;-73
2022/11/07 04:49:26;;;;;;;24.65;22.73;;;;;;;;;;10188758;28;20488;-74
2022/11/07 04:54:22;;;;;;;24.67;22.92;;;;;;;;;;10201821;28;20038;-74
2022/11/07 04:59:18;;;;;;;25.40;23.38;;;;;;;;;;10178146;28;20050;-71
2022/11/07 05:04:14;;;;;;;29.42;27.33;;;;;;;;;;10178120;28;20052;-71
2022/11/07 05:09:15;;;;;;;29.70;27.75;;;;;;;;;;10174935;28;20046;-72
2022/11/07 05:14:12;;;;;;;27.55;25.75;;;;;;;;;;10185299;28;20053;-71
2022/11/07 05:19:14;;;;;;;27.13;25.17;;;;;;;;;;10187639;28;20046;-74
2022/11/07 05:24:11;;;;;;;26.53;24.70;;;;;;;;;;10182056;28;20061;-74
2022/11/07 05:29:09;;;;;;;26.85;24.88;;;;;;;;;;10189217;28;20503;-75
2022/11/07 05:34:05;;;;;;;26.05;24.13;;;;;;;;;;10199174;28;20052;-75
2022/11/07 05:39:07;;;;;;;26.23;24.63;;;;;;;;;;10193402;28;20045;-75
2022/11/07 05:44:03;;;;;;;29.60;27.48;;;;;;;;;;10184084;28;20391;-74
2022/11/07 05:49:00;;;;;;;29.67;27.55;;;;;;;;;;10192089;28;20037;-71
2022/11/07 05:53:56;;;;;;;32.65;30.25;;;;;;;;;;10188638;28;20042;-72
2022/11/07 05:58:52;;;;;;;33.28;31.10;;;;;;;;;;10171418;28;20048;-73
2022/11/07 06:03:49;;;;;;;37.65;34.97;;;;;;;;;;10179865;28;20055;-74
2022/11/07 06:08:45;;;;;;;36.40;34.03;;;;;;;;;;10193152;28;20050;-73
2022/11/07 06:13:41;;;;;;;37.47;34.30;;;;;;;;;;10193524;28;20046;-73
2022/11/07 06:18:38;;;;;;;35.97;33.67;;;;;;;;;;10195875;28;20049;-73
2022/11/07 06:23:37;;;;;;;36.22;33.83;;;;;;;;;;10187605;28;20059;-73
2022/11/07 06:28:33;;;;;;;37.90;35.03;;;;;;;;;;10193777;28;20042;-72
2022/11/07 06:33:30;;;;;;;36.67;34.08;;;;;;;;;;10196576;28;20046;-73
2022/11/07 06:38:26;;;;;;;37.47;34.88;;;;;;;;;;10197462;28;20041;-73
2022/11/07 06:43:23;;;;;;;37.67;35.28;;;;;;;;;;10194850;28;20076;-73
2022/11/07 06:48:19;;;;;;;38.97;36.30;;;;;;;;;;10191146;28;20129;-73
2022/11/07 06:53:15;;;;;;;38.55;35.85;;;;;;;;;;10186435;28;20079;-72
2022/11/07 06:58:12;;;;;;;39.67;37.05;;;;;;;;;;10184180;28;20053;-71
2022/11/07 07:03:09;;;;;;;42.92;40.15;;;;;;;;;;10182215;28;20487;-71
2022/11/07 07:08:06;;;;;;;38.53;36.10;;;;;;;;;;10203380;28;20042;-72
2022/11/07 07:13:02;;;;;;;46.28;42.22;;;;;;;;;;10200149;28;20046;-72
2022/11/07 07:18:02;;;;;;;38.53;35.40;;;;;;;;;;10196228;28;20046;-72
2022/11/07 07:22:58;;;;;;;37.63;34.58;;;;;;;;;;10170901;28;20145;-71
2022/11/07 07:28:00;;;;;;;32.40;30.20;;;;;;;;;;10171287;28;20038;-72
2022/11/07 07:32:57;;;;;;;32.38;30.15;;;;;;;;;;10176915;28;20509;-72
2022/11/07 07:37:53;;;;;;;31.42;28.98;;;;;;;;;;10169527;28;20041;-71
2022/11/07 07:42:49;;;;;;;32.58;29.98;;;;;;;;;;10182837;28;20064;-71
2022/11/07 07:47:46;;;;;;;34.40;31.92;;;;;;;;;;10177787;28;20056;-70
2022/11/07 07:52:42;;;;;;;32.60;30.27;;;;;;;;;;10188851;28;20496;-70
2022/11/07 07:57:39;;;;;;;33.83;31.55;;;;;;;;;;10176869;28;20042;-70
2022/11/07 08:02:36;;;;;;;35.55;33.25;;;;;;;;;;10177065;28;20416;-70
2022/11/07 08:07:32;;;;;;;29.88;27.75;;;;;;;;;;10197886;28;20140;-70
2022/11/07 08:12:28;;;;;;;26.55;24.55;;;;;;;;;;10191156;28;20046;-70
2022/11/07 08:17:25;;;;;;;28.02;25.73;;;;;;;;;;10181046;28;20052;-70
2022/11/07 08:22:21;;;;;;;28.17;25.42;;;;;;;;;;10197744;28;20040;-70
2022/11/07 08:27:17;;;;;;;25.17;23.40;;;;;;;;;;10180469;28;20038;-70
2022/11/07 08:32:14;;;;;;;26.67;24.50;;;;;;;;;;10193872;28;20071;-70
2022/11/07 08:37:10;;;;;;;24.63;22.67;;;;;;;;;;10189063;28;20052;-70
2022/11/07 08:42:06;;;;;;;22.70;20.80;;;;;;;;;;10207900;28;20050;-70
2022/11/07 08:47:04;;;;;;;23.48;21.45;;;;;;;;;;10201108;28;20049;-70
2022/11/07 08:52:04;;;;;;;23.83;21.48;;;;;;;;;;10192731;28;20041;-70
2022/11/07 08:57:00;;;;;;;23.83;21.98;;;;;;;;;;10181134;28;20050;-69
2022/11/07 09:01:56;;;;;;;22.25;20.30;;;;;;;;;;10194693;28;20041;-69
2022/11/07 09:07:12;;;;;;;21.20;19.58;;;;;;;;;;10170513;28;20062;-69
2022/11/07 09:12:10;;;;;;;22.98;21.13;;;;;;;;;;10203900;28;20045;-71
2022/11/07 09:17:06;;;;;;;24.30;21.20;;;;;;;;;;10207023;28;20045;-70
2022/11/07 09:22:02;;;;;;;23.10;21.08;;;;;;;;;;10202688;28;20056;-72
2022/11/07 09:26:58;;;;;;;19.60;18.15;;;;;;;;;;10196477;28;20409;-72
2022/11/07 09:31:55;;;;;;;19.45;17.73;;;;;;;;;;10185831;28;20057;-71
2022/11/07 09:36:51;;;;;;;18.33;16.05;;;;;;;;;;10201117;28;20057;-70
2022/11/07 09:41:55;;;;;;;18.77;17.27;;;;;;;;;;10194861;28;20488;-71
2022/11/07 09:47:05;;;;;;;18.08;16.15;;;;;;;;;;10188018;28;20569;-71
2022/11/07 09:52:10;;;;;;;16.33;14.75;;;;;;;;;;10201826;28;20051;-71
2022/11/07 09:57:10;;;;;;;14.82;13.38;;;;;;;;;;10202215;28;20134;-70
2022/11/07 10:02:12;;;;;;;12.77;11.48;;;;;;;;;;10180207;28;20102;-69
2022/11/07 10:07:28;;;;;;;16.40;14.02;;;;;;;;;;10174856;28;20050;-71
2022/11/07 10:12:54;;;;;;;15.73;14.32;;;;;;;;;;10155499;28;20058;-70
2022/11/07 10:18:01;;;;;;;16.90;14.43;;;;;;;;;;10133147;28;20052;-70
2022/11/07 10:22:57;;;;;;;18.52;15.32;;;;;;;;;;10192661;28;20037;-70
2022/11/07 10:28:00;;;;;;;17.02;14.63;;;;;;;;;;10181620;28;20124;-70
2022/11/07 10:32:57;;;;;;;15.05;13.80;;;;;;;;;;10180109;28;20052;-70
2022/11/07 10:37:54;;;;;;;17.30;15.70;;;;;;;;;;10183533;28;20464;-70
2022/11/07 10:42:52;;;;;;;17.20;15.55;;;;;;;;;;10179795;28;20039;-70
2022/11/07 10:47:59;;;;;;;16.63;14.88;;;;;;;;;;10172926;28;20443;-69
2022/11/07 10:52:59;;;;;;;15.88;14.38;;;;;;;;;;10182474;28;20037;-69
2022/11/07 10:57:58;;;;;;;15.15;13.95;;;;;;;;;;10188139;28;20041;-69
2022/11/07 11:02:55;;;;;;;17.08;15.27;;;;;;;;;;10195613;28;20446;-69
2022/11/07 11:07:53;;;;;;;14.15;12.85;;;;;;;;;;10175220;28;20044;-69
2022/11/07 11:12:49;;;;;;;16.08;14.32;;;;;;;;;;10182497;28;20033;-69
2022/11/07 11:17:54;;;;;;;18.08;13.15;;;;;;;;;;10187310;28;20523;-70
2022/11/07 11:22:51;;;;;;;15.13;13.73;;;;;;;;;;10163754;28;20743;-70
2022/11/07 11:27:49;;;;;;;16.17;14.57;;;;;;;;;;10165314;28;20049;-71
2022/11/07 11:32:55;;;;;;;17.65;15.02;;;;;;;;;;10169457;28;20049;-70
2022/11/07 11:37:57;;;;;;;19.13;14.77;;;;;;;;;;10158668;28;20130;-70
2022/11/07 11:42:57;;;;;;;16.70;14.93;;;;;;;;;;10168931;28;20046;-70
2022/11/07 11:48:17;;;;;;;16.05;14.43;;;;;;;;;;10156255;28;20044;-69
2022/11/07 11:53:15;;;;;;;16.45;15.00;;;;;;;;;;10154330;28;20492;-70
2022/11/07 11:58:26;;;;;;;17.98;16.25;;;;;;;;;;10195827;28;20048;-70
2022/11/07 12:03:36;;;;;;;18.50;16.48;;;;;;;;;;10180828;28;21192;-70
2022/11/07 12:08:54;;;;;;;18.48;15.77;;;;;;;;;;10188892;28;20057;-69
2022/11/07 12:13:59;;;;;;;15.60;14.20;;;;;;;;;;10198230;28;20048;-69
2022/11/07 12:19:01;;;;;;;16.67;15.05;;;;;;;;;;10197520;28;20043;-70
2022/11/07 12:24:16;;;;;;;21.67;16.27;;;;;;;;;;10200620;28;20048;-69
2022/11/07 12:29:26;;;;;;;19.45;16.73;;;;;;;;;;10207079;28;20631;-71
2022/11/07 12:34:26;;;;;;;16.42;15.10;;;;;;;;;;10182081;28;20209;-70
2022/11/07 12:39:23;;;;;;;18.85;16.83;;;;;;;;;;10178295;28;20045;-70
2022/11/07 12:44:28;;;;;;;18.00;15.98;;;;;;;;;;10177472;28;20042;-70
2022/11/07 12:49:27;;;;;;;21.98;16.65;;;;;;;;;;10174140;28;20053;-70
2022/11/07 12:54:36;;;;;;;17.73;16.20;;;;;;;;;;10181363;28;20490;-70
2022/11/07 12:59:34;;;;;;;17.38;16.02;;;;;;;;;;10182440;28;20053;-71
2022/11/07 13:04:49;;;;;;;17.52;16.00;;;;;;;;;;10185056;28;20345;-70
2022/11/07 13:09:53;;;;;;;17.20;15.85;;;;;;;;;;10195920;28;20045;-70
2022/11/07 13:14:50;;;;;;;16.90;15.38;;;;;;;;;;10174415;28;20037;-71
2022/11/07 13:19:59;;;;;;;19.15;17.27;;;;;;;;;;10202501;28;20050;-71
2022/11/07 13:25:08;;;;;;;18.75;17.08;;;;;;;;;;10195029;28;20046;-72
2022/11/07 13:30:11;;;;;;;18.73;17.00;;;;;;;;;;10200574;28;20062;-71
2022/11/07 13:35:09;;;;;;;19.13;17.35;;;;;;;;;;10187570;28;20038;-71
2022/11/07 13:40:19;;;;;;;19.95;17.80;;;;;;;;;;10194609;28;20049;-71
2022/11/07 13:45:35;;;;;;;19.98;18.25;;;;;;;;;;10190036;28;20057;-72
2022/11/07 13:50:40;;;;;;;22.25;20.33;;;;;;;;;;10183146;28;20061;-72
2022/11/07 13:55:50;;;;;;;30.30;27.73;;;;;;;;;;10197791;28;20063;-71
2022/11/07 14:00:46;;;;;;;37.28;34.97;;;;;;;;;;10196161;28;20050;-71
2022/11/07 14:05:46;;;;;;;43.13;40.35;;;;;;;;;;10193179;28;20068;-71
2022/11/07 14:10:46;;;;;;;41.13;38.35;;;;;;;;;;10197833;28;20058;-71
2022/11/07 14:15:46;;;;;;;42.95;40.30;;;;;;;;;;10189832;28;20054;-71
2022/11/07 14:20:46;;;;;;;45.90;42.78;;;;;;;;;;10174848;28;20137;-72
2022/11/07 14:25:42;;;;;;;44.85;42.00;;;;;;;;;;10177076;28;20053;-69
2022/11/07 14:30:40;;;;;;;48.15;44.80;;;;;;;;;;10192601;28;20133;-71
2022/11/07 14:35:42;;;;;;;47.42;43.97;;;;;;;;;;10184017;28;20056;-70
2022/11/07 14:40:39;;;;;;;48.72;45.47;;;;;;;;;;10173787;28;20528;-71
2022/11/07 14:45:36;;;;;;;45.90;42.55;;;;;;;;;;10172385;28;20045;-71
2022/11/07 14:50:52;;;;;;;42.08;38.85;;;;;;;;;;10159802;28;20042;-69
2022/11/07 14:55:52;;;;;;;47.72;44.55;;;;;;;;;;10159618;28;20462;-69
2022/11/07 15:01:12;;;;;;;45.45;42.22;;;;;;;;;;10158391;28;20054;-71
2022/11/07 15:06:19;;;;;;;46.08;42.90;;;;;;;;;;10145371;28;20053;-71
2022/11/07 15:11:29;;;;;;;50.15;46.45;;;;;;;;;;10169499;28;20061;-70
2022/11/07 15:16:45;;;;;;;49.72;46.13;;;;;;;;;;10162323;28;20042;-70
2022/11/07 15:21:50;;;;;;;41.63;38.78;;;;;;;;;;10174080;28;20046;-71
2022/11/07 15:26:56;;;;;;;44.92;41.83;;;;;;;;;;10172977;28;20078;-70
2022/11/07 15:31:53;;;;;;;45.45;42.58;;;;;;;;;;10174237;28;20711;-71
2022/11/07 15:36:49;;;;;;;50.97;47.35;;;;;;;;;;10189819;28;20699;-70
2022/11/07 15:41:45;;;;;;;46.97;43.80;;;;;;;;;;10195068;28;20056;-70
2022/11/07 15:46:41;;;;;;;44.08;41.15;;;;;;;;;;10189729;28;20056;-70
2022/11/07 15:51:38;;;;;;;41.33;37.92;;;;;;;;;;10193702;28;20057;-71
2022/11/07 15:56:34;;;;;;;40.30;37.70;;;;;;;;;;10191082;28;20046;-70
2022/11/07 16:01:30;;;;;;;36.90;34.25;;;;;;;;;;10177767;28;20052;-70
2022/11/07 16:06:29;;;;;;;40.08;37.25;;;;;;;;;;10192471;28;20046;-70
2022/11/07 16:11:26;;;;;;;41.90;38.80;;;;;;;;;;10187229;28;20050;-70
2022/11/07 16:16:23;;;;;;;37.80;35.30;;;;;;;;;;10195736;28;20045;-70
2022/11/07 16:21:19;;;;;;;36.15;33.35;;;;;;;;;;10192350;28;20042;-71
2022/11/07 16:26:18;;;;;;;37.85;35.15;;;;;;;;;;10181499;28;20049;-70
2022/11/07 16:31:14;;;;;;;33.17;30.83;;;;;;;;;;10196819;28;20049;-70
2022/11/07 16:36:24;;;;;;;31.70;29.63;;;;;;;;;;10190783;28;20049;-70
2022/11/07 16:41:21;;;;;;;32.30;29.95;;;;;;;;;;10173323;28;20052;-70
2022/11/07 16:46:18;;;;;;;34.92;32.53;;;;;;;;;;10187638;28;20056;-69
2022/11/07 16:51:16;;;;;;;33.35;30.95;;;;;;;;;;10201791;28;20098;-70
2022/11/07 16:56:23;;;;;;;34.22;31.02;;;;;;;;;;10189651;28;20706;-70
2022/11/07 17:01:20;;;;;;;32.40;29.85;;;;;;;;;;10184110;28;20384;-70
2022/11/07 17:06:23;;;;;;;32.88;30.65;;;;;;;;;;10183609;28;20081;-70
2022/11/07 17:11:19;;;;;;;30.50;28.38;;;;;;;;;;10182936;28;20528;-70
2022/11/07 17:16:24;;;;;;;31.58;29.52;;;;;;;;;;10177456;28;20046;-71
2022/11/07 17:21:28;;;;;;;30.92;28.70;;;;;;;;;;10162858;28;20132;-71
2022/11/07 17:26:26;;;;;;;32.00;29.42;;;;;;;;;;10163593;28;20065;-70
2022/11/07 17:31:23;;;;;;;30.60;28.55;;;;;;;;;;10170596;28;20045;-70
2022/11/07 17:36:19;;;;;;;30.38;27.98;;;;;;;;;;10173274;28;20073;-71
2022/11/07 17:41:16;;;;;;;30.30;28.00;;;;;;;;;;10164194;28;20056;-70
2022/11/07 17:46:19;;;;;;;32.63;30.27;;;;;;;;;;10167530;28;20069;-70
2022/11/07 17:51:15;;;;;;;33.17;30.65;;;;;;;;;;10174141;28;20081;-71
2022/11/07 17:56:16;;;;;;;35.85;33.17;;;;;;;;;;10177341;28;20042;-71
2022/11/07 18:01:13;;;;;;;36.70;34.17;;;;;;;;;;10169952;28;20050;-70
2022/11/07 18:06:09;;;;;;;42.95;39.83;;;;;;;;;;10166389;28;20042;-69
2022/11/07 18:11:06;;;;;;;63.40;59.50;;;;;;;;;;10158206;28;20134;-70
2022/11/07 18:16:22;;;;;;;81.25;76.30;;;;;;;;;;10158384;28;20080;-71
2022/11/07 18:21:18;;;;;;;92.97;87.40;;;;;;;;;;10169467;28;20065;-73
2022/11/07 18:26:19;;;;;;;102.10;96.18;;;;;;;;;;10165256;28;20042;-73
2022/11/07 18:31:17;;;;;;;108.15;101.43;;;;;;;;;;10167057;28;20253;-72
2022/11/07 18:36:16;;;;;;;94.55;89.05;;;;;;;;;;10184273;28;20041;-72
2022/11/07 18:41:13;;;;;;;95.47;89.50;;;;;;;;;;10174149;28;20046;-71
2022/11/07 18:46:13;;;;;;;87.68;82.60;;;;;;;;;;10156781;28;20128;-71
2022/11/07 18:51:11;;;;;;;90.60;84.95;;;;;;;;;;10159089;28;20046;-71
2022/11/07 18:56:07;;;;;;;80.85;75.57;;;;;;;;;;10178016;28;20046;-71
2022/11/07 19:01:05;;;;;;;72.50;67.88;;;;;;;;;;10164015;28;20432;-71
2022/11/07 19:06:09;;;;;;;62.00;57.90;;;;;;;;;;10156509;28;20046;-70
2022/11/07 19:11:07;;;;;;;53.90;50.42;;;;;;;;;;10165430;28;20046;-71
2022/11/07 19:16:05;;;;;;;54.45;50.20;;;;;;;;;;10170468;28;20042;-71
2022/11/07 19:21:02;;;;;;;52.28;48.97;;;;;;;;;;10180368;28;20056;-72
2022/11/07 19:25:58;;;;;;;50.47;47.00;;;;;;;;;;10169809;28;20074;-71
2022/11/07 19:30:55;;;;;;;45.42;42.33;;;;;;;;;;10170642;28;20045;-72
2022/11/07 19:35:59;;;;;;;44.85;41.85;;;;;;;;;;10179353;28;20053;-72
2022/11/07 19:40:55;;;;;;;45.50;42.25;;;;;;;;;;10181402;28;20050;-71
2022/11/07 19:45:52;;;;;;;43.35;40.30;;;;;;;;;;10173782;28;20437;-70
2022/11/07 19:50:48;;;;;;;48.03;44.42;;;;;;;;;;10171164;28;20050;-71
2022/11/07 19:55:44;;;;;;;54.42;50.83;;;;;;;;;;10175308;28;20084;-71
2022/11/07 20:00:41;;;;;;;56.55;53.00;;;;;;;;;;10177870;28;20546;-71
2022/11/07 20:05:38;;;;;;;68.25;63.40;;;;;;;;;;10169860;28;20481;-72
2022/11/07 20:10:34;;;;;;;82.00;77.10;;;;;;;;;;10183901;28;20062;-71
2022/11/07 20:15:30;;;;;;;82.95;78.25;;;;;;;;;;10188501;28;20088;-71
2022/11/07 20:20:26;;;;;;;87.45;82.00;;;;;;;;;;10165356;28;20053;-71
2022/11/07 20:25:23;;;;;;;94.55;88.70;;;;;;;;;;10173045;28;20046;-71
2022/11/07 20:30:19;;;;;;;100.75;94.60;;;;;;;;;;10175917;28;20046;-71
2022/11/07 20:35:15;;;;;;;96.78;91.15;;;;;;;;;;10176046;28;20053;-71
2022/11/07 20:40:13;;;;;;;99.35;92.97;;;;;;;;;;10186880;28;20116;-71
2022/11/07 20:45:12;;;;;;;98.00;92.18;;;;;;;;;;10181826;28;20062;-71
2022/11/07 20:50:08;;;;;;;106.78;100.18;;;;;;;;;;10160284;28;20046;-70
2022/11/07 20:55:05;;;;;;;114.57;107.30;;;;;;;;;;10159951;28;20061;-70
2022/11/07 21:00:02;;;;;;;111.85;105.05;;;;;;;;;;10182109;28;20046;-74
2022/11/07 21:04:58;;;;;;;117.40;110.50;;;;;;;;;;10192683;28;20058;-74
2022/11/07 21:10:14;;;;;;;122.82;116.03;;;;;;;;;;10178054;28;20060;-73
2022/11/07 21:15:10;;;;;;;113.78;107.28;;;;;;;;;;10174035;28;20046;-73
2022/11/07 21:20:09;;;;;;;106.90;100.47;;;;;;;;;;10171000;28;20053;-72
2022/11/07 21:25:05;;;;;;;104.63;98.60;;;;;;;;;;10170105;28;20042;-73
2022/11/07 21:30:03;;;;;;;106.97;100.82;;;;;;;;;;10169966;28;20054;-72
2022/11/07 21:34:59;;;;;;;103.90;97.72;;;;;;;;;;10191420;28;20054;-73
2022/11/07 21:39:56;;;;;;;105.13;98.78;;;;;;;;;;10181434;28;20418;-73
2022/11/07 21:44:52;;;;;;;107.50;101.47;;;;;;;;;;10167990;28;20054;-73
2022/11/07 21:49:48;;;;;;;104.60;98.78;;;;;;;;;;10175879;28;20044;-69
2022/11/07 21:54:45;;;;;;;109.10;102.50;;;;;;;;;;10189726;28;20510;-72
2022/11/07 21:59:41;;;;;;;107.88;101.60;;;;;;;;;;10177749;28;20046;-69
2022/11/07 22:04:37;;;;;;;104.97;99.03;;;;;;;;;;10174562;28;20046;-69
2022/11/07 22:09:33;;;;;;;105.57;99.82;;;;;;;;;;10177430;28;20057;-72
2022/11/07 22:14:30;;;;;;;102.63;97.25;;;;;;;;;;10173127;28;20065;-72
2022/11/07 22:19:26;;;;;;;100.80;95.05;;;;;;;;;;10192282;28;20058;-72
2022/11/07 22:24:25;;;;;;;86.03;81.30;;;;;;;;;;10172045;28;20390;-72
2022/11/07 22:29:22;;;;;;;87.93;82.60;;;;;;;;;;10184333;28;20420;-71
2022/11/07 22:34:18;;;;;;;78.43;73.78;;;;;;;;;;10172315;28;20057;-70
2022/11/07 22:39:14;;;;;;;75.00;70.97;;;;;;;;;;10187318;28;20037;-70
2022/11/07 22:44:10;;;;;;;73.18;69.28;;;;;;;;;;10191675;28;20147;-70
2022/11/07 22:49:07;;;;;;;61.90;58.55;;;;;;;;;;10192154;28;20104;-71
2022/11/07 22:54:04;;;;;;;59.60;56.17;;;;;;;;;;10175770;28;20042;-72
2022/11/07 22:59:01;;;;;;;60.42;57.08;;;;;;;;;;10181188;28;20038;-70
2022/11/07 23:03:57;;;;;;;55.42;52.15;;;;;;;;;;10179579;28;20141;-70
2022/11/07 23:08:56;;;;;;;49.95;47.22;;;;;;;;;;10174448;28;20042;-70
2022/11/07 23:13:59;;;;;;;45.85;43.00;;;;;;;;;;10186628;28;20057;-70
2022/11/07 23:18:57;;;;;;;40.35;37.80;;;;;;;;;;10199981;28;20130;-70
2022/11/07 23:23:54;;;;;;;37.78;35.25;;;;;;;;;;10169745;28;20052;-72
2022/11/07 23:28:50;;;;;;;37.05;34.75;;;;;;;;;;10201223;28;20047;-72
2022/11/07 23:33:46;;;;;;;38.13;35.67;;;;;;;;;;10182651;28;20391;-73
2022/11/07 23:38:43;;;;;;;36.53;34.13;;;;;;;;;;10192462;28;20054;-72
2022/11/07 23:43:40;;;;;;;39.42;36.75;;;;;;;;;;10178190;28;20050;-72
